Detall de PIREP

Printer-friendly versionPDF version

[2013/03/23 15:57:00]
Flight IATA:CT1006
Pilot Number:012
Company ICAO:CAT
Aircraft Type:C750/F
PAX:4
Departing Airport: LEAL
Destination Airport: LICJ
Alternate Airport:LIRA
Online: VATSIM
Route:MITOS UN851 PTC UM871 KAPIL
Flight Level:F350
No Slew and time accel
No pause
Crash detect
Detect pilot in Cockpit between each 30 and 45 minutes
15:57 Zero fuel Weight: 22740 Lbs, Fuel Weight: 4806 Lbs
15:57 VATSIM:LEAL 231530Z 16007KT 120V200 9999 FEW050 16/09 Q1003 NOSIG
15:57 VATSIM:LICJ 231520Z 02004KT 350V050 CAVOK 17/12 Q1008
15:57 VOICE CATALONIAN / ALMOGAVERS ROUTE
15:59 Parking Brakes off
16:03 Take-off
16:03 Take off Weight: 27456 Lbs
16:03 Wind: 164º @ 005 Knots Heading: 101º
16:03 POS N38º 16´ 56´´ W000º 33´ 35´´
16:03 Gear Up: 146 Knots
16:03 Flaps:3 at 146 Knots
16:04 Flaps:2 at 154 Knots
16:04 Flaps:0 at 152 Knots
16:17 TOC
16:17 Fuel Weight: 4155 Lb
16:18 Wind:214º@064 Knots Heading: 072º Ground Speed: 561 Knots Altitude 34744 ft
16:33 Wind:217º@062 Knots Heading: 086º Ground Speed: 547 Knots Altitude 34701 ft
16:48 Wind:234º@065 Knots Heading: 090º Ground Speed: 557 Knots Altitude 34704 ft
17:03 Wind:235º@063 Knots Heading: 115º Ground Speed: 541 Knots Altitude 34812 ft
17:10 TOD
17:10 Fuel Weight: 2487 Lb
17:18 Wind:247º@025 Knots Heading: 106º Ground Speed: 400 Knots Altitude 17634 ft
17:28 Flaps:2 at 213 Knots
17:30 Flaps:3 at 183 Knots
17:30 Gear Down: 183 Knots
17:31 Flaps:4 at 160 Knots
17:32 Flaps:5 at 146 Knots
17:33 Wind:049º@010 Knots Heading: 247º Ground Speed: 146 Knots Altitude 1335 ft
17:34 TouchDown:Rate -117 ft/min Speed: 107 Knots
17:35 VATSIM:LICJ 231650Z VRB01KT CAVOK 17/11 Q1008
17:35 Land
17:35 Wind:049º@011 Knots
17:35 Heading: 248º
17:35 Flight Duration: 01:32
17:35 Landing Weight: 24904 Lbs
17:35 POS N38º 10´ 47´´ E013º 06´ 11´´
17:38 Parking brakes on
17:38 Block to Block Duration: 01:39
17:38 Final Fuel: 2127 Lbls
17:38 Spent Fuel: 2678 Lbls
17:38 Flight Length: 697 NM
17:38 TOD Land Length: 128 NM

Exportar CSV

Powered by Drupal - Modified by Danger4k